createdAt,value
2022-08-03T00:04:37.339Z,2
2022-08-03T00:09:38.958Z,4
2022-08-03T00:14:40.543Z,3
2022-08-03T00:19:42.260Z,2
2022-08-03T00:24:43.920Z,4
2022-08-03T00:29:59.351Z,5
2022-08-03T00:35:07.852Z,4
2022-08-03T00:40:10.645Z,4
2022-08-03T00:45:12.246Z,4
2022-08-03T00:50:13.847Z,5
2022-08-03T00:55:15.480Z,4
2022-08-03T01:00:17.327Z,5
2022-08-03T01:05:18.913Z,5
2022-08-03T01:10:20.505Z,7
2022-08-03T01:15:22.350Z,6
2022-08-03T01:20:24.002Z,7
2022-08-03T01:25:25.628Z,8
2022-08-03T01:30:27.257Z,8
2022-08-03T01:35:29.371Z,7
2022-08-03T01:40:31.000Z,8
2022-08-03T01:45:33.864Z,7
2022-08-03T01:50:35.741Z,6
2022-08-03T01:55:37.404Z,8
2022-08-03T02:00:39.056Z,7
2022-08-03T02:05:40.789Z,7
2022-08-03T02:10:42.458Z,6
2022-08-03T02:15:44.057Z,8
2022-08-03T02:20:45.782Z,6
2022-08-03T02:25:47.440Z,7
2022-08-03T02:30:53.811Z,8
2022-08-03T02:35:55.705Z,9
2022-08-03T02:40:57.326Z,8
2022-08-03T02:45:58.913Z,6
2022-08-03T02:51:00.524Z,9
2022-08-03T02:56:02.146Z,20
2022-08-03T03:01:03.746Z,7
2022-08-03T03:06:05.701Z,8
2022-08-03T03:11:07.491Z,9
2022-08-03T03:16:09.099Z,8
2022-08-03T03:21:10.715Z,7
2022-08-03T03:26:12.330Z,8
2022-08-03T03:31:13.947Z,9
2022-08-03T03:36:15.719Z,8
2022-08-03T03:41:17.323Z,8
2022-08-03T03:46:18.941Z,8
2022-08-03T03:51:20.766Z,9
2022-08-03T03:56:22.651Z,9
2022-08-03T04:01:24.395Z,9
2022-08-03T04:06:26.042Z,10
2022-08-03T04:11:29.094Z,8
2022-08-03T04:16:32.266Z,11
2022-08-03T04:21:33.842Z,10
2022-08-03T04:26:40.490Z,10
2022-08-03T04:31:42.096Z,11
2022-08-03T04:36:43.816Z,16
2022-08-03T04:42:04.447Z,12
2022-08-03T04:47:10.252Z,10
2022-08-03T04:52:11.865Z,12
2022-08-03T04:57:22.401Z,10
2022-08-03T05:02:25.049Z,12
2022-08-03T05:07:34.162Z,10
2022-08-03T05:12:37.942Z,10
2022-08-03T05:17:39.570Z,11
2022-08-03T05:22:41.110Z,11
2022-08-03T05:27:42.955Z,12
2022-08-03T05:32:44.564Z,12
2022-08-03T05:37:54.539Z,9
2022-08-03T05:42:56.605Z,11
2022-08-03T05:47:59.671Z,10
2022-08-03T05:53:01.252Z,10
2022-08-03T05:58:02.886Z,9
2022-08-03T06:03:04.524Z,8
2022-08-03T06:08:06.113Z,9
2022-08-03T06:13:07.794Z,10
2022-08-03T06:18:09.403Z,10
2022-08-03T06:23:16.015Z,9
2022-08-03T06:28:51.253Z,9
2022-08-03T06:34:33.405Z,8
2022-08-03T06:39:37.047Z,7
2022-08-03T06:44:38.682Z,10
2022-08-03T06:49:40.405Z,8
2022-08-03T06:54:42.078Z,9
2022-08-03T07:00:09.005Z,9
2022-08-03T07:05:12.830Z,10
2022-08-03T07:10:14.495Z,9
2022-08-03T07:15:20.171Z,10
2022-08-03T07:20:22.407Z,12
2022-08-03T07:25:24.032Z,11
2022-08-03T07:30:25.978Z,12
2022-08-03T07:35:27.679Z,10
2022-08-03T07:40:31.645Z,13
2022-08-03T07:45:34.009Z,11
2022-08-03T07:50:35.689Z,11
2022-08-03T07:55:37.326Z,12
2022-08-03T08:00:39.088Z,13
2022-08-03T08:05:40.686Z,13
2022-08-03T08:10:42.353Z,13
2022-08-03T08:15:59.714Z,14
2022-08-03T08:21:01.304Z,14
2022-08-03T08:26:03.177Z,15
2022-08-03T08:31:04.783Z,13
2022-08-03T08:36:06.574Z,16
2022-08-03T08:41:08.209Z,16
2022-08-03T08:46:09.792Z,16
2022-08-03T08:51:11.431Z,14
2022-08-03T08:56:13.027Z,20
2022-08-03T09:01:14.705Z,15
2022-08-03T09:06:16.372Z,14
2022-08-03T09:11:18.005Z,17
2022-08-03T09:16:23.978Z,18
2022-08-03T09:21:32.114Z,15
2022-08-03T09:26:34.511Z,15
2022-08-03T09:31:36.122Z,13
2022-08-03T09:36:37.791Z,14
2022-08-03T09:41:39.423Z,15
2022-08-03T09:46:41.005Z,16
2022-08-03T09:52:32.259Z,15
2022-08-03T09:57:40.324Z,14
2022-08-03T10:02:46.277Z,13
2022-08-03T10:07:47.859Z,15
2022-08-03T10:12:49.494Z,15
2022-08-03T10:17:51.073Z,14
2022-08-03T10:22:52.898Z,14
2022-08-03T10:27:54.589Z,16
2022-08-03T10:32:56.234Z,13
2022-08-03T10:37:58.920Z,14
2022-08-03T10:43:00.714Z,12
2022-08-03T10:48:02.355Z,17
2022-08-03T10:53:04.110Z,11
2022-08-03T10:58:11.024Z,12
2022-08-03T11:03:13.081Z,10
2022-08-03T11:08:14.891Z,13
2022-08-03T11:13:16.883Z,13
2022-08-03T11:18:18.636Z,10
2022-08-03T11:23:20.254Z,15
2022-08-03T11:29:05.446Z,14
2022-08-03T11:34:07.037Z,16
2022-08-03T11:39:08.665Z,17
2022-08-03T11:44:10.268Z,16
2022-08-03T11:49:12.164Z,15
2022-08-03T11:54:13.793Z,11
2022-08-03T11:59:20.193Z,13
2022-08-03T12:04:23.295Z,15
2022-08-03T12:09:25.060Z,16
2022-08-03T12:14:49.683Z,12
2022-08-03T12:19:53.362Z,12
2022-08-03T12:24:54.997Z,12
2022-08-03T12:29:58.570Z,12
2022-08-03T12:35:01.698Z,12
2022-08-03T12:40:07.756Z,13
2022-08-03T12:45:11.548Z,13
2022-08-03T12:50:13.367Z,13
2022-08-03T12:55:15.016Z,13
2022-08-03T13:00:21.742Z,13
2022-08-03T13:05:30.981Z,14
2022-08-03T13:10:32.610Z,13
2022-08-03T13:15:38.532Z,15
2022-08-03T13:20:49.592Z,16
2022-08-03T13:25:55.592Z,16
2022-08-03T13:30:57.968Z,15
2022-08-03T13:35:59.606Z,15
2022-08-03T13:41:01.264Z,17
2022-08-03T13:46:06.920Z,18
2022-08-03T13:51:21.788Z,18
2022-08-03T13:56:24.712Z,16
2022-08-03T14:01:54.065Z,17
2022-08-03T14:06:57.118Z,15
2022-08-03T14:12:04.067Z,12
2022-08-03T14:17:10.222Z,14
2022-08-03T14:22:13.598Z,13
2022-08-03T14:27:15.219Z,16
2022-08-03T14:32:16.814Z,14
2022-08-03T14:37:18.803Z,13
2022-08-03T14:42:20.645Z,20
2022-08-03T14:47:22.514Z,15
2022-08-03T14:52:24.329Z,16
2022-08-03T14:57:25.989Z,16
2022-08-03T15:02:27.626Z,15
2022-08-03T15:07:29.310Z,17
2022-08-03T15:12:30.899Z,16
2022-08-03T15:17:32.510Z,18
2022-08-03T15:22:35.235Z,19
2022-08-03T15:27:36.882Z,19
2022-08-03T15:33:06.064Z,24
2022-08-03T15:38:09.649Z,24
2022-08-03T15:43:11.643Z,25
2022-08-03T15:48:13.273Z,22
2022-08-03T15:53:14.880Z,21
2022-08-03T15:59:11.421Z,20
2022-08-03T16:04:15.473Z,21
2022-08-03T16:09:23.728Z,20
2022-08-03T16:14:52.252Z,20
2022-08-03T16:19:55.363Z,19
2022-08-03T16:24:56.993Z,19
2022-08-03T16:29:58.665Z,20
2022-08-03T16:35:00.287Z,21
2022-08-03T16:40:01.905Z,20
2022-08-03T16:45:03.574Z,19
2022-08-03T16:50:12.825Z,20
2022-08-03T16:55:42.850Z,20
2022-08-03T17:00:46.343Z,19
2022-08-03T17:05:48.289Z,21
2022-08-03T17:10:51.511Z,21
2022-08-03T17:16:01.504Z,24
2022-08-03T17:21:03.624Z,22
2022-08-03T17:26:08.921Z,20
2022-08-03T17:31:22.873Z,21
2022-08-03T17:37:02.278Z,22
2022-08-03T17:42:04.704Z,24
2022-08-03T17:47:41.770Z,23
2022-08-03T17:52:48.245Z,31
2022-08-03T17:58:01.985Z,33
2022-08-03T18:03:04.846Z,28
2022-08-03T18:08:11.182Z,40
2022-08-03T18:13:13.705Z,24
2022-08-03T18:18:15.410Z,26
2022-08-03T18:23:24.818Z,39
2022-08-03T18:28:38.669Z,33
2022-08-03T18:34:20.337Z,0
2022-08-03T18:39:35.769Z,55
2022-08-03T18:44:53.953Z,30
2022-08-03T18:49:57.650Z,39
2022-08-03T18:55:07.398Z,39
2022-08-03T19:00:16.030Z,44
2022-08-03T19:05:17.731Z,53
2022-08-03T19:10:19.488Z,32
2022-08-03T19:15:36.652Z,36
2022-08-03T19:20:43.449Z,36
2022-08-03T19:25:48.681Z,34
2022-08-03T19:30:53.336Z,38
2022-08-03T19:35:57.101Z,33
2022-08-03T19:40:59.722Z,34
2022-08-03T21:13:02.898Z,35
2022-08-03T21:18:13.545Z,38
2022-08-03T21:23:34.880Z,34
2022-08-03T21:28:47.194Z,36
2022-08-03T21:33:48.820Z,37
2022-08-03T21:38:56.262Z,36
2022-08-03T21:43:59.008Z,36
2022-08-03T21:50:04.303Z,42
2022-08-03T21:55:07.826Z,42
2022-08-03T22:00:09.386Z,40
2022-08-03T22:05:16.274Z,38
2022-08-03T22:10:18.241Z,38
2022-08-03T22:15:19.831Z,41
2022-08-03T22:20:22.293Z,40
2022-08-03T22:25:23.991Z,40
2022-08-03T22:30:25.617Z,41
2022-08-03T22:35:27.216Z,40
2022-08-03T22:40:28.979Z,41
2022-08-03T22:46:07.979Z,44
2022-08-03T22:51:13.069Z,37
2022-08-03T22:56:14.725Z,40
2022-08-03T23:01:16.341Z,41
2022-08-03T23:06:17.967Z,43
2022-08-03T23:11:19.567Z,41
2022-08-03T23:16:29.313Z,41
2022-08-03T23:22:00.031Z,43
2022-08-03T23:27:03.925Z,41
2022-08-03T23:32:05.650Z,42
2022-08-03T23:37:07.263Z,43
2022-08-03T23:42:08.905Z,42
2022-08-03T23:47:10.510Z,44
2022-08-03T23:52:12.088Z,41
2022-08-03T23:57:13.689Z,40
